Terminal Aerodrome Forecast
Issued by NWS

Home | Current Version | Previous Version | Text Only | Print | Product List | Glossary On
Versions: 1 2 3 4 5 6 7 8 9 10 11 12 13 14 15 16 17
000
FTUS43 KABR 272300 CCA
TAFMBG
TAF COR
KMBG 272349Z 2800/2824 23006KT P6SM BKN060 BKN100
     FM280600 02006KT 5SM BR BKN020 BKN100
     FM281200 05009KT P6SM OVC018=

USA.gov is the U.S. government's official web portal to all federal, state and local government web resources and services.